Time;durP1;ratioP1;P1;durP2;ratioP2;P2;SDS_P1;SDS_P2;PMS_P1;PMS_P2;Temp;Humidity;BMP_temperature;BMP_pressure;BME280_temperature;BME280_humidity;BME280_pressure;Samples;Min_cycle;Max_cycle;Signal;HPM_P1;HPM_P2
2022/12/20 00:01:33;;;;;;;53.27;39.40;;;9.00;1.00;;;;;;5034878;28;20026;-63
2022/12/20 00:04:12;;;;;;;56.80;38.83;;;8.90;1.00;;;;;;5020302;28;20025;-63
2022/12/20 00:06:43;;;;;;;51.47;36.83;;;8.80;1.00;;;;;;5030289;28;20068;-63
2022/12/20 00:09:11;;;;;;;53.93;38.57;;;9.00;1.00;;;;;;5026930;28;20084;-63
2022/12/20 00:11:39;;;;;;;58.43;39.17;;;9.00;1.00;;;;;;5031508;28;20049;-63
2022/12/20 00:14:06;;;;;;;51.33;36.83;;;8.80;1.00;;;;;;5022324;28;20020;-63
2022/12/20 00:16:32;;;;;;;55.37;38.43;;;8.90;1.00;;;;;;5033481;28;20117;-63
2022/12/20 00:19:00;;;;;;;54.63;37.73;;;8.90;1.00;;;;;;5034297;28;20453;-63
2022/12/20 00:21:27;;;;;;;53.43;38.17;;;8.90;1.00;;;;;;5032871;28;20033;-63
2022/12/20 00:23:54;;;;;;;52.53;37.23;;;8.90;1.00;;;;;;5034869;28;20116;-63
2022/12/20 00:26:23;;;;;;;52.17;37.90;;;8.60;1.00;;;;;;5024855;28;20029;-63
2022/12/20 00:28:49;;;;;;;57.33;37.83;;;8.60;1.00;;;;;;5033712;28;20068;-64
2022/12/20 00:31:17;;;;;;;53.67;37.23;;;8.80;1.00;;;;;;5027966;28;20084;-63
2022/12/20 00:33:46;;;;;;;57.00;38.57;;;8.80;1.00;;;;;;5034825;28;20025;-63
2022/12/20 00:36:12;;;;;;;53.87;37.93;;;8.90;1.00;;;;;;5033023;28;20364;-64
2022/12/20 00:38:38;;;;;;;58.07;38.50;;;8.90;1.00;;;;;;5033373;28;20463;-64
2022/12/20 00:41:11;;;;;;;48.47;36.40;;;9.00;1.00;;;;;;5028347;28;20067;-63
2022/12/20 00:43:38;;;;;;;50.28;37.03;;;8.90;1.00;;;;;;5034611;28;20391;-63
2022/12/20 00:46:05;;;;;;;49.27;36.30;;;9.00;1.00;;;;;;5033033;28;20032;-63
2022/12/20 00:48:34;;;;;;;53.75;37.25;;;8.90;1.00;;;;;;5031257;28;20112;-64
2022/12/20 00:51:02;;;;;;;50.77;36.93;;;8.80;1.00;;;;;;5033892;28;20088;-63
2022/12/20 00:53:28;;;;;;;53.60;38.30;;;8.70;1.00;;;;;;5034348;28;20033;-64
2022/12/20 00:55:57;;;;;;;53.90;39.07;;;8.80;1.00;;;;;;5033873;28;20029;-63
2022/12/20 00:58:23;;;;;;;53.57;38.77;;;8.70;1.00;;;;;;5034242;28;20021;-64
2022/12/20 01:00:49;;;;;;;55.37;38.87;;;8.80;1.00;;;;;;5034061;28;20063;-63
2022/12/20 01:03:17;;;;;;;52.20;36.70;;;9.00;1.00;;;;;;5031240;28;20079;-63
2022/12/20 01:05:55;;;;;;;51.97;37.03;;;8.90;1.00;;;;;;5028093;28;20044;-63
2022/12/20 01:08:22;;;;;;;52.63;38.30;;;8.90;1.00;;;;;;5034272;28;20026;-63
2022/12/20 01:11:14;;;;;;;50.33;36.10;;;8.90;1.00;;;;;;5028861;28;20111;-63
2022/12/20 01:13:46;;;;;;;50.27;36.60;;;8.80;1.00;;;;;;5037925;28;20021;-63
2022/12/20 01:16:23;;;;;;;49.90;36.13;;;8.90;1.00;;;;;;5036521;28;20025;-63
2022/12/20 01:18:50;;;;;;;51.13;38.20;;;9.00;1.00;;;;;;5033718;28;20062;-63
2022/12/20 01:21:17;;;;;;;50.33;36.60;;;8.80;1.00;;;;;;5033220;28;20092;-63
2022/12/20 01:23:43;;;;;;;48.80;35.43;;;9.00;1.00;;;;;;5029594;28;20026;-63
2022/12/20 01:26:18;;;;;;;47.17;35.40;;;8.90;1.00;;;;;;5027980;28;20040;-63
2022/12/20 01:28:46;;;;;;;50.50;36.22;;;9.00;1.00;;;;;;5033600;28;20123;-63
2022/12/20 01:31:15;;;;;;;48.90;34.77;;;8.90;1.00;;;;;;5033210;28;20051;-63
2022/12/20 01:33:41;;;;;;;48.70;35.00;;;9.00;1.00;;;;;;5033460;28;20067;-63
2022/12/20 01:36:25;;;;;;;45.73;34.20;;;8.60;1.00;;;;;;5031133;28;20032;-63
2022/12/20 01:39:05;;;;;;;48.03;33.93;;;8.80;1.00;;;;;;5016422;28;20475;-63
2022/12/20 01:41:32;;;;;;;46.40;34.90;;;8.80;1.00;;;;;;5024792;28;20101;-63
2022/12/20 01:43:59;;;;;;;48.60;35.87;;;8.70;1.00;;;;;;5031870;28;20033;-63
2022/12/20 01:46:28;;;;;;;45.37;34.80;;;8.80;1.00;;;;;;5033178;28;20426;-63
2022/12/20 01:49:12;;;;;;;48.47;36.03;;;8.80;1.00;;;;;;5017760;28;20029;-63
2022/12/20 01:51:59;;;;;;;45.60;34.43;;;8.60;1.00;;;;;;5031583;28;20041;-63
2022/12/20 01:54:52;;;;;;;46.73;36.10;;;8.70;1.00;;;;;;5032459;28;20026;-64
2022/12/20 01:57:28;;;;;;;44.23;33.83;;;8.80;1.00;;;;;;5032047;28;20021;-63
2022/12/20 01:59:55;;;;;;;49.73;36.17;;;8.80;1.00;;;;;;5032131;28;20120;-63
2022/12/20 02:02:31;;;;;;;46.30;35.00;;;8.60;1.00;;;;;;5032268;28;20037;-63
2022/12/20 02:04:57;;;;;;;53.10;36.57;;;8.60;1.00;;;;;;5030456;28;20061;-63
2022/12/20 02:11:22;;;;;;;53.47;37.00;;;8.80;1.00;;;;;;5024624;28;20059;-63
2022/12/20 02:14:06;;;;;;;50.60;38.23;;;8.60;1.00;;;;;;5025170;28;20028;-63
2022/12/20 02:16:44;;;;;;;52.10;37.43;;;8.70;1.00;;;;;;5023310;28;20083;-63
2022/12/20 02:19:27;;;;;;;51.77;37.57;;;8.70;1.00;;;;;;5029146;28;20386;-62
2022/12/20 02:22:43;;;;;;;52.57;38.67;;;8.40;1.00;;;;;;5032204;28;20538;-63
2022/12/20 02:26:04;;;;;;;51.45;37.72;;;8.50;1.00;;;;;;5017730;28;20029;-63
2022/12/20 02:28:51;;;;;;;52.97;38.20;;;8.60;1.00;;;;;;5032205;28;20021;-63
2022/12/20 02:31:23;;;;;;;52.50;39.00;;;8.50;1.00;;;;;;5031213;28;20119;-63
2022/12/20 02:33:51;;;;;;;53.83;38.43;;;8.20;1.00;;;;;;5032476;28;20482;-63
2022/12/20 02:36:17;;;;;;;51.33;38.10;;;8.30;1.00;;;;;;5022132;28;20045;-63
2022/12/20 02:38:43;;;;;;;56.53;40.83;;;8.30;1.00;;;;;;5032391;28;20045;-63
2022/12/20 02:41:16;;;;;;;55.47;41.50;;;8.50;1.00;;;;;;5027903;28;20025;-63
2022/12/20 02:53:13;;;;;;;58.47;41.73;;;8.50;1.00;;;;;;5014971;28;20053;-63
2022/12/20 02:55:49;;;;;;;56.37;40.53;;;8.70;1.00;;;;;;5017469;28;20025;-63
2022/12/20 02:58:22;;;;;;;56.90;43.40;;;8.50;1.00;;;;;;5020108;28;20037;-63
2022/12/20 03:00:50;;;;;;;57.73;41.10;;;8.50;1.00;;;;;;5032231;28;20018;-63
2022/12/20 03:03:22;;;;;;;61.10;42.53;;;8.50;1.00;;;;;;5029517;28;20120;-64
2022/12/20 03:05:52;;;;;;;54.77;41.77;;;8.70;1.00;;;;;;5027200;28;20503;-63
2022/12/20 03:08:19;;;;;;;52.97;39.80;;;8.50;1.00;;;;;;5031966;28;20438;-64
2022/12/20 03:10:45;;;;;;;51.53;39.23;;;8.50;1.00;;;;;;5030345;28;20049;-64
2022/12/20 03:13:10;;;;;;;55.40;40.03;;;8.60;1.00;;;;;;5030962;28;20022;-63
2022/12/20 03:15:36;;;;;;;56.20;41.60;;;8.50;1.00;;;;;;5032172;28;20037;-64
2022/12/20 03:18:02;;;;;;;57.80;41.33;;;8.50;1.00;;;;;;5032977;28;20026;-63
2022/12/20 03:20:28;;;;;;;58.03;41.43;;;8.50;1.00;;;;;;5035943;28;20029;-64
2022/12/20 03:22:54;;;;;;;59.07;42.40;;;8.40;1.00;;;;;;5035134;28;20029;-63
2022/12/20 03:25:19;;;;;;;56.83;40.20;;;8.40;1.00;;;;;;5035678;28;20029;-63
2022/12/20 03:27:45;;;;;;;56.27;40.70;;;8.60;1.00;;;;;;5032964;28;20029;-63
2022/12/20 03:30:11;;;;;;;57.23;39.97;;;8.60;1.00;;;;;;5035531;28;20025;-63
2022/12/20 03:32:37;;;;;;;55.70;40.80;;;8.70;1.00;;;;;;5035590;28;20037;-63
2022/12/20 03:35:03;;;;;;;52.67;38.77;;;8.60;1.00;;;;;;5034638;28;20016;-63
2022/12/20 03:37:35;;;;;;;57.30;39.97;;;8.50;1.00;;;;;;5030679;28;20041;-63
2022/12/20 03:40:01;;;;;;;52.07;36.70;;;8.50;1.00;;;;;;5034842;28;20025;-63
2022/12/20 03:42:26;;;;;;;58.43;40.77;;;8.60;1.00;;;;;;5031341;28;20048;-63
2022/12/20 03:44:52;;;;;;;53.33;38.23;;;8.60;1.00;;;;;;5035712;28;20027;-63
2022/12/20 03:47:18;;;;;;;54.40;39.10;;;8.50;1.00;;;;;;5035491;28;20061;-63
2022/12/20 03:49:43;;;;;;;51.97;38.27;;;8.60;1.00;;;;;;5035371;28;20095;-63
2022/12/20 03:52:11;;;;;;;56.43;38.33;;;8.40;1.00;;;;;;5028506;28;20029;-64
2022/12/20 03:54:37;;;;;;;55.57;39.13;;;8.40;1.00;;;;;;5033959;28;20029;-64
2022/12/20 03:57:03;;;;;;;55.30;38.77;;;8.60;1.00;;;;;;5026623;28;20032;-64
2022/12/20 03:59:28;;;;;;;56.97;39.37;;;8.60;1.00;;;;;;5035314;28;20382;-64
2022/12/20 04:01:54;;;;;;;57.30;40.13;;;8.60;1.00;;;;;;5025783;28;20483;-64
2022/12/20 04:04:20;;;;;;;52.70;40.13;;;8.50;1.00;;;;;;5034826;28;20356;-64
2022/12/20 04:06:45;;;;;;;53.07;38.60;;;8.40;1.00;;;;;;5028283;28;20109;-64
2022/12/20 04:09:11;;;;;;;54.47;38.53;;;8.50;1.00;;;;;;5031554;28;20105;-64
2022/12/20 04:11:38;;;;;;;55.93;38.20;;;8.50;1.00;;;;;;5026150;28;20045;-64
2022/12/20 04:14:04;;;;;;;55.50;38.57;;;8.60;1.00;;;;;;5030973;28;20379;-65
2022/12/20 04:16:30;;;;;;;54.87;38.40;;;8.60;1.00;;;;;;5030241;28;20026;-65
2022/12/20 04:18:56;;;;;;;53.47;37.83;;;8.70;1.00;;;;;;5028817;28;20032;-64
2022/12/20 04:21:24;;;;;;;56.23;40.17;;;8.70;1.00;;;;;;5032191;28;20036;-64
2022/12/20 04:23:50;;;;;;;54.50;37.70;;;8.50;1.00;;;;;;5035231;28;20124;-64
2022/12/20 04:26:16;;;;;;;52.37;37.73;;;8.60;1.00;;;;;;5031633;28;20637;-64
2022/12/20 04:28:42;;;;;;;52.63;38.90;;;8.60;1.00;;;;;;5024740;28;20056;-64
2022/12/20 04:31:08;;;;;;;52.63;37.13;;;8.50;1.00;;;;;;5034584;28;20074;-64
2022/12/20 04:33:34;;;;;;;51.03;35.80;;;8.50;1.00;;;;;;5035097;28;20032;-64
2022/12/20 04:35:59;;;;;;;55.87;39.27;;;8.50;1.00;;;;;;5026892;28;20025;-64
2022/12/20 04:38:25;;;;;;;50.90;36.97;;;8.30;1.00;;;;;;5023097;28;20379;-64
2022/12/20 04:40:53;;;;;;;57.43;38.83;;;8.40;1.00;;;;;;5033829;28;20060;-64
2022/12/20 04:43:20;;;;;;;55.67;38.37;;;8.50;1.00;;;;;;5031985;28;20017;-64
2022/12/20 04:45:51;;;;;;;55.17;40.80;;;8.40;1.00;;;;;;5034669;28;20021;-64
2022/12/20 04:48:20;;;;;;;50.83;37.37;;;8.40;1.00;;;;;;5037726;28;20059;-65
2022/12/20 04:50:50;;;;;;;51.03;36.30;;;8.50;1.00;;;;;;5021895;28;20042;-64
2022/12/20 04:56:01;;;;;;;54.80;39.25;;;8.50;1.00;;;;;;5031323;28;20402;-65
2022/12/20 04:58:27;;;;;;;51.77;39.13;;;8.40;1.00;;;;;;5034360;28;20030;-64
2022/12/20 05:00:52;;;;;;;55.63;39.40;;;8.60;1.00;;;;;;5032994;28;20074;-64
2022/12/20 05:03:30;;;;;;;51.83;38.83;;;8.50;1.00;;;;;;5033369;28;20044;-64
2022/12/20 05:05:56;;;;;;;55.50;39.43;;;8.60;1.00;;;;;;5033866;28;20032;-65
2022/12/20 05:08:22;;;;;;;54.67;38.07;;;8.50;1.00;;;;;;5034287;28;20138;-65
2022/12/20 05:10:48;;;;;;;47.10;35.10;;;8.40;1.00;;;;;;5027503;28;20471;-64
2022/12/20 05:13:14;;;;;;;42.70;32.73;;;8.30;1.00;;;;;;5017315;28;20112;-64
2022/12/20 05:15:40;;;;;;;45.53;32.60;;;8.40;1.00;;;;;;5028957;28;20033;-64
2022/12/20 05:18:07;;;;;;;43.00;32.77;;;8.50;1.00;;;;;;5030103;28;20473;-64
2022/12/20 05:20:33;;;;;;;40.63;30.13;;;8.40;1.00;;;;;;5024023;28;20025;-65
2022/12/20 05:28:30;;;;;;;43.20;31.43;;;8.50;1.00;;;;;;5022625;28;20530;-65
2022/12/20 05:31:08;;;;;;;42.83;31.17;;;8.40;1.00;;;;;;5022479;28;20586;-64
2022/12/20 05:33:34;;;;;;;42.30;32.07;;;8.50;1.00;;;;;;5033777;28;20371;-64
2022/12/20 05:35:59;;;;;;;41.43;30.50;;;8.40;1.00;;;;;;5021865;28;20030;-64
2022/12/20 05:38:28;;;;;;;41.60;29.30;;;8.50;1.00;;;;;;5033925;28;20021;-64
2022/12/20 05:40:54;;;;;;;40.93;29.93;;;8.40;1.00;;;;;;5031125;28;20068;-65
2022/12/20 05:43:19;;;;;;;43.00;31.23;;;8.30;1.00;;;;;;5033311;28;20049;-64
2022/12/20 05:45:51;;;;;;;40.47;30.07;;;8.30;1.00;;;;;;5033752;28;20026;-64
2022/12/20 05:48:17;;;;;;;43.50;30.77;;;8.30;1.00;;;;;;5033125;28;20036;-64
2022/12/20 05:50:44;;;;;;;38.10;28.23;;;8.40;1.00;;;;;;5046037;28;20378;-64
2022/12/20 05:53:15;;;;;;;35.27;27.00;;;8.40;1.00;;;;;;5031788;28;20368;-64
2022/12/20 05:55:46;;;;;;;34.97;26.13;;;8.40;1.00;;;;;;5033070;28;20483;-65
2022/12/20 05:58:12;;;;;;;38.40;27.57;;;8.40;1.00;;;;;;5032794;28;20418;-64
2022/12/20 06:01:12;;;;;;;34.07;26.80;;;8.40;1.00;;;;;;5032928;28;20026;-65
2022/12/20 06:03:39;;;;;;;36.83;27.30;;;8.30;1.00;;;;;;5025919;28;20033;-65
2022/12/20 06:06:05;;;;;;;35.43;27.43;;;8.40;1.00;;;;;;5019350;28;20029;-65
2022/12/20 06:08:31;;;;;;;33.27;24.47;;;8.20;1.00;;;;;;5024282;28;20121;-65
2022/12/20 06:10:56;;;;;;;35.53;28.37;;;8.30;1.00;;;;;;5030848;28;20133;-63
2022/12/20 06:13:22;;;;;;;38.70;27.27;;;8.20;1.00;;;;;;5032533;28;20017;-63
2022/12/20 06:15:48;;;;;;;38.13;26.30;;;8.20;1.00;;;;;;5032775;28;20025;-64
2022/12/20 06:18:13;;;;;;;36.30;27.03;;;8.20;1.00;;;;;;5032945;28;20459;-64
2022/12/20 06:20:39;;;;;;;35.53;25.00;;;8.10;1.00;;;;;;5032594;28;20025;-64
2022/12/20 06:23:06;;;;;;;38.53;27.10;;;8.00;1.00;;;;;;5032423;28;20348;-64
2022/12/20 06:25:31;;;;;;;36.87;26.70;;;8.20;1.00;;;;;;5032759;28;20026;-64
2022/12/20 06:27:57;;;;;;;36.17;26.17;;;8.20;1.00;;;;;;5031052;28;20029;-64
2022/12/20 06:33:45;;;;;;;36.50;27.10;;;8.00;1.00;;;;;;5022708;28;20041;-64
2022/12/20 06:36:11;;;;;;;34.57;25.67;;;8.00;1.00;;;;;;5032634;28;20021;-64
2022/12/20 06:38:54;;;;;;;34.20;24.83;;;8.00;1.00;;;;;;5032257;28;20023;-64
2022/12/20 06:41:20;;;;;;;38.93;26.73;;;8.00;1.00;;;;;;5022607;28;20041;-64
2022/12/20 06:43:46;;;;;;;35.50;27.07;;;8.00;1.00;;;;;;5031224;28;20049;-64
2022/12/20 06:46:11;;;;;;;34.53;26.07;;;8.20;1.00;;;;;;5030045;28;20407;-64
2022/12/20 06:48:37;;;;;;;39.70;26.70;;;8.10;1.00;;;;;;5034205;28;20033;-64
2022/12/20 06:51:03;;;;;;;36.20;26.83;;;8.20;1.00;;;;;;5042736;28;20034;-64
2022/12/20 06:53:28;;;;;;;34.13;26.23;;;8.30;1.00;;;;;;5025158;28;20061;-64
2022/12/20 06:55:54;;;;;;;36.67;25.20;;;8.20;1.00;;;;;;5029334;28;20079;-64
2022/12/20 06:58:20;;;;;;;33.53;26.30;;;8.30;1.00;;;;;;5030934;28;20071;-64
2022/12/20 07:00:46;;;;;;;36.97;26.67;;;8.40;1.00;;;;;;5029984;28;20025;-64
2022/12/20 07:03:13;;;;;;;37.27;26.13;;;8.40;1.00;;;;;;5032794;28;20020;-65
2022/12/20 07:05:39;;;;;;;32.13;25.07;;;8.40;1.00;;;;;;5025867;28;20380;-65
2022/12/20 07:08:05;;;;;;;32.23;24.80;;;8.30;1.00;;;;;;5016063;28;20060;-65
2022/12/20 07:10:33;;;;;;;31.30;24.60;;;8.30;1.00;;;;;;5035186;28;20052;-65
2022/12/20 07:13:08;;;;;;;33.10;24.17;;;8.30;1.00;;;;;;5034545;28;20034;-65
2022/12/20 07:15:59;;;;;;;32.85;24.95;;;8.10;1.00;;;;;;5032275;28;20056;-65
2022/12/20 07:18:25;;;;;;;32.83;23.20;;;8.20;1.00;;;;;;5025376;28;20112;-65
2022/12/20 07:20:50;;;;;;;33.47;23.97;;;8.00;1.00;;;;;;5037225;28;20451;-65
2022/12/20 07:23:17;;;;;;;32.63;24.80;;;7.90;1.00;;;;;;5032151;28;20031;-65
2022/12/20 07:25:54;;;;;;;31.00;23.23;;;8.00;1.00;;;;;;5031643;28;20083;-64
2022/12/20 07:28:19;;;;;;;32.23;23.87;;;8.00;1.00;;;;;;5030489;28;20398;-64
2022/12/20 07:30:45;;;;;;;33.40;23.73;;;8.10;1.00;;;;;;5032210;28;20029;-64
2022/12/20 07:33:11;;;;;;;32.80;24.43;;;8.20;1.00;;;;;;5028949;28;20454;-64
2022/12/20 07:35:36;;;;;;;33.27;24.07;;;8.30;1.00;;;;;;5037271;28;20034;-64
2022/12/20 07:38:02;;;;;;;33.50;25.20;;;8.20;1.00;;;;;;5031633;28;20513;-64
2022/12/20 07:40:28;;;;;;;31.93;24.47;;;8.20;1.00;;;;;;5031714;28;20032;-64
2022/12/20 07:43:00;;;;;;;33.53;24.70;;;8.20;1.00;;;;;;5019330;28;20021;-64
2022/12/20 07:45:28;;;;;;;32.37;25.27;;;8.10;1.00;;;;;;5030158;28;20479;-64
2022/12/20 07:47:56;;;;;;;33.93;24.77;;;8.40;1.00;;;;;;5032130;28;20030;-64
2022/12/20 07:50:21;;;;;;;31.70;23.80;;;8.20;1.00;;;;;;5031401;28;20059;-64
2022/12/20 07:52:49;;;;;;;33.87;25.63;;;8.30;1.00;;;;;;5031959;28;20390;-64
2022/12/20 07:55:16;;;;;;;33.77;25.53;;;8.20;1.00;;;;;;5031312;28;20116;-64
2022/12/20 07:57:55;;;;;;;32.67;25.70;;;8.30;1.00;;;;;;5026559;28;20499;-64
2022/12/20 08:00:21;;;;;;;32.53;24.77;;;8.20;1.00;;;;;;5031609;28;20021;-64
2022/12/20 08:03:00;;;;;;;32.17;24.10;;;8.30;1.00;;;;;;5029317;28;20166;-60
2022/12/20 08:05:27;;;;;;;34.77;25.30;;;8.30;1.00;;;;;;5035261;28;20090;-61
2022/12/20 08:07:56;;;;;;;34.50;26.03;;;8.30;1.00;;;;;;5032451;28;20025;-61
2022/12/20 08:10:22;;;;;;;33.40;25.43;;;8.30;1.00;;;;;;5035244;28;20561;-62
2022/12/20 08:12:48;;;;;;;32.93;26.03;;;8.30;1.00;;;;;;5033086;28;20041;-62
2022/12/20 08:15:14;;;;;;;32.83;25.57;;;8.30;1.00;;;;;;5035034;28;20033;-62
2022/12/20 08:17:40;;;;;;;35.83;26.37;;;8.40;1.00;;;;;;5034606;28;20029;-62
2022/12/20 08:20:07;;;;;;;36.00;26.17;;;8.40;1.00;;;;;;5034616;28;20053;-62
2022/12/20 08:22:34;;;;;;;37.63;28.87;;;8.50;1.00;;;;;;5034714;28;20079;-62
2022/12/20 08:24:59;;;;;;;37.00;28.90;;;8.50;1.00;;;;;;5031287;28;20025;-62
2022/12/20 08:27:25;;;;;;;34.53;26.13;;;8.50;1.00;;;;;;5028873;28;20390;-62
2022/12/20 08:29:51;;;;;;;35.97;26.40;;;8.40;1.00;;;;;;5035033;28;20026;-62
2022/12/20 08:32:16;;;;;;;40.57;28.07;;;8.50;1.00;;;;;;5026469;28;20134;-62
2022/12/20 08:34:42;;;;;;;37.70;27.70;;;8.60;1.00;;;;;;5034455;28;20025;-61
2022/12/20 08:37:08;;;;;;;36.93;28.97;;;8.60;1.00;;;;;;5034354;28;20468;-61
2022/12/20 08:39:33;;;;;;;37.37;28.03;;;8.60;1.00;;;;;;5034484;28;20036;-62
2022/12/20 08:41:59;;;;;;;38.53;28.63;;;8.50;1.00;;;;;;5033935;28;20039;-66
2022/12/20 08:44:25;;;;;;;34.47;26.70;;;8.60;1.00;;;;;;5032322;28;20151;-62
2022/12/20 08:46:52;;;;;;;35.83;28.17;;;8.30;1.00;;;;;;5033235;28;20076;-61
2022/12/20 08:56:08;;;;;;;34.93;27.80;;;8.50;1.00;;;;;;5020248;28;20151;-67
2022/12/20 08:58:35;;;;;;;36.37;28.27;;;8.50;1.00;;;;;;5029534;28;20439;-62
2022/12/20 09:01:04;;;;;;;37.33;27.53;;;8.50;1.00;;;;;;5032587;28;20033;-67
2022/12/20 09:03:30;;;;;;;35.77;28.67;;;8.40;1.00;;;;;;5034033;28;20026;-63
2022/12/20 09:05:57;;;;;;;35.13;27.10;;;8.70;1.00;;;;;;5024882;28;20113;-58
2022/12/20 09:08:23;;;;;;;33.90;26.17;;;8.70;1.00;;;;;;5022335;28;20440;-66
2022/12/20 09:10:49;;;;;;;36.27;27.50;;;8.60;1.00;;;;;;5041240;28;20053;-68
2022/12/20 09:13:14;;;;;;;36.47;26.90;;;8.50;1.00;;;;;;5031211;28;20041;-70
2022/12/20 09:15:41;;;;;;;37.60;29.07;;;8.60;1.00;;;;;;5033095;28;20014;-70
2022/12/20 09:18:06;;;;;;;32.30;26.80;;;8.50;1.00;;;;;;5032731;28;20044;-67
2022/12/20 09:20:32;;;;;;;37.13;27.70;;;8.70;1.00;;;;;;5030617;28;20041;-62
2022/12/20 09:22:59;;;;;;;32.93;27.30;;;8.70;1.00;;;;;;5024862;28;20026;-68
2022/12/20 09:25:25;;;;;;;39.03;26.93;;;8.70;1.00;;;;;;5040923;28;20084;-53
2022/12/20 09:27:52;;;;;;;32.90;26.33;;;8.70;1.00;;;;;;5033840;28;20034;-59
2022/12/20 09:30:18;;;;;;;35.07;26.27;;;8.80;1.00;;;;;;5029499;28;20375;-59
2022/12/20 09:32:44;;;;;;;38.53;27.47;;;8.90;1.00;;;;;;5034067;28;20026;-54
2022/12/20 09:35:10;;;;;;;37.20;26.40;;;8.80;1.00;;;;;;5031008;28;20049;-57
2022/12/20 09:37:35;;;;;;;35.13;27.63;;;8.80;1.00;;;;;;5032599;28;20099;-56
2022/12/20 09:40:01;;;;;;;39.83;26.57;;;8.90;1.00;;;;;;5030776;28;20088;-61
2022/12/20 09:42:28;;;;;;;38.83;27.67;;;8.80;1.00;;;;;;5033105;28;20438;-59
2022/12/20 09:45:05;;;;;;;34.35;27.52;;;8.90;1.00;;;;;;5032686;28;20025;-55
2022/12/20 09:47:34;;;;;;;33.97;26.08;;;8.80;1.00;;;;;;5032858;28;20036;-54
2022/12/20 09:50:01;;;;;;;36.20;27.23;;;8.90;1.00;;;;;;5033138;28;20022;-57
2022/12/20 09:52:47;;;;;;;38.38;27.02;;;8.90;1.00;;;;;;5033257;28;20080;-53
2022/12/20 09:55:22;;;;;;;36.13;26.48;;;8.70;1.00;;;;;;5029646;28;20087;-57
2022/12/20 09:58:22;;;;;;;33.90;25.02;;;8.90;1.00;;;;;;5030720;28;20426;-62
2022/12/20 10:00:49;;;;;;;31.48;23.85;;;8.90;1.00;;;;;;5019557;28;20034;-57
2022/12/20 10:03:22;;;;;;;37.35;27.23;;;8.90;1.00;;;;;;5031627;28;20022;-56
2022/12/20 10:06:45;;;;;;;39.30;26.50;;;9.00;1.00;;;;;;5023734;28;20038;-55
2022/12/20 10:09:50;;;;;;;34.33;25.50;;;8.90;1.00;;;;;;5003521;28;20042;-63
2022/12/20 10:12:17;;;;;;;;;;;9.00;1.00;;;;;;4996940;28;20451;-73
2022/12/20 10:15:00;;;;;;;33.53;25.73;;;9.00;1.00;;;;;;5021543;28;19909;-72
2022/12/20 10:17:37;;;;;;;32.10;25.70;;;9.10;1.00;;;;;;5023992;28;20102;-70
2022/12/20 10:20:24;;;;;;;35.15;26.60;;;9.10;1.00;;;;;;5032791;28;20036;-70
2022/12/20 10:23:01;;;;;;;35.05;26.60;;;9.20;1.00;;;;;;5024019;28;20030;-70
2022/12/20 10:25:33;;;;;;;34.13;26.27;;;9.10;1.00;;;;;;5032628;28;20029;-72
2022/12/20 10:28:03;;;;;;;33.00;27.05;;;9.10;1.00;;;;;;5031906;28;20028;-70
2022/12/20 10:30:31;;;;;;;33.80;25.73;;;9.20;1.00;;;;;;5032395;28;20030;-70
2022/12/20 10:32:58;;;;;;;36.57;27.30;;;9.10;1.00;;;;;;5032361;28;20092;-65
2022/12/20 10:35:32;;;;;;;34.65;26.80;;;9.30;1.00;;;;;;5032308;28;20029;-63
2022/12/20 10:38:02;;;;;;;36.58;27.15;;;9.30;1.00;;;;;;5031693;28;20029;-71
2022/12/20 10:40:35;;;;;;;35.65;27.17;;;9.30;1.00;;;;;;5027277;28;20476;-71
2022/12/20 10:43:02;;;;;;;34.97;26.95;;;9.40;1.00;;;;;;5016998;28;20461;-68
2022/12/20 10:45:37;;;;;;;33.03;26.27;;;9.50;1.00;;;;;;5032355;28;20419;-62
2022/12/20 10:48:25;;;;;;;33.00;26.33;;;9.50;1.00;;;;;;5032354;28;20028;-61
2022/12/20 10:51:07;;;;;;;34.95;25.65;;;9.60;1.00;;;;;;5032223;28;20113;-62
2022/12/20 10:53:34;;;;;;;35.35;25.40;;;9.70;1.00;;;;;;5027610;28;20392;-67
2022/12/20 10:56:15;;;;;;;31.38;24.38;;;9.60;1.00;;;;;;5029823;28;20060;-53
2022/12/20 10:58:41;;;;;;;32.42;24.42;;;9.70;1.00;;;;;;5032288;28;20112;-57
2022/12/20 11:01:14;;;;;;;35.77;26.97;;;9.70;1.00;;;;;;5029370;28;20120;-53
2022/12/20 11:03:52;;;;;;;31.65;24.73;;;9.80;1.00;;;;;;5044898;28;20029;-62
2022/12/20 11:06:20;;;;;;;31.58;24.60;;;9.70;1.00;;;;;;5031810;28;20374;-60
2022/12/20 11:08:47;;;;;;;32.25;26.00;;;9.70;1.00;;;;;;5032343;28;20033;-60
2022/12/20 11:11:22;;;;;;;35.95;25.90;;;9.70;1.00;;;;;;5041229;28;20057;-61
2022/12/20 11:13:49;;;;;;;32.92;26.05;;;9.80;1.00;;;;;;5032417;28;20022;-60
2022/12/20 11:16:44;;;;;;;29.27;22.38;;;9.60;1.00;;;;;;5028270;28;20090;-60
2022/12/20 11:19:47;;;;;;;29.38;23.35;;;9.60;1.00;;;;;;5029145;28;20033;-61
2022/12/20 11:22:55;;;;;;;27.08;19.83;;;9.60;1.00;;;;;;5031476;28;20090;-72
2022/12/20 11:25:34;;;;;;;32.92;23.17;;;9.60;1.00;;;;;;5027277;28;20492;-73
2022/12/20 11:28:28;;;;;;;31.65;23.67;;;9.70;1.00;;;;;;5032315;28;20060;-70
2022/12/20 11:31:09;;;;;;;27.25;21.67;;;9.80;1.00;;;;;;5031836;28;20030;-55
2022/12/20 11:34:02;;;;;;;36.35;28.35;;;9.70;1.00;;;;;;5018554;28;20032;-62
2022/12/20 11:36:48;;;;;;;38.90;27.48;;;9.80;1.00;;;;;;5016876;28;20018;-61
2022/12/20 11:39:31;;;;;;;36.42;28.20;;;9.90;1.00;;;;;;5031264;28;20034;-60
2022/12/20 11:42:26;;;;;;;39.20;30.60;;;10.00;1.00;;;;;;5030901;28;20021;-69
2022/12/20 11:45:09;;;;;;;45.97;32.67;;;10.20;1.00;;;;;;5022217;28;20026;-73
2022/12/20 11:48:16;;;;;;;41.08;30.17;;;10.20;1.00;;;;;;5012640;28;20026;-61
2022/12/20 11:50:56;;;;;;;41.03;30.73;;;10.00;1.00;;;;;;5029178;28;20049;-57
2022/12/20 11:53:49;;;;;;;43.88;31.95;;;9.90;1.00;;;;;;5035084;28;20026;-65
2022/12/20 11:59:52;;;;;;;40.50;32.05;;;9.90;1.00;;;;;;5021707;28;20075;-60
2022/12/20 12:02:32;;;;;;;37.88;28.98;;;9.90;1.00;;;;;;5020474;28;20470;-61
2022/12/20 12:05:04;;;;;;;37.72;31.00;;;9.80;1.00;;;;;;5035246;28;20095;-61
2022/12/20 12:07:35;;;;;;;37.75;30.70;;;9.80;1.00;;;;;;5033953;28;20112;-61
2022/12/20 12:10:16;;;;;;;38.85;31.23;;;9.80;1.00;;;;;;5034362;28;20045;-60
2022/12/20 12:12:44;;;;;;;39.38;31.33;;;10.00;1.00;;;;;;5035149;28;20034;-62
2022/12/20 12:15:10;;;;;;;37.92;29.48;;;10.10;1.00;;;;;;5031708;28;20491;-61
2022/12/20 12:17:47;;;;;;;37.60;30.23;;;10.00;1.00;;;;;;5034893;28;20060;-61
2022/12/20 12:20:57;;;;;;;41.60;30.60;;;9.90;1.00;;;;;;5028902;28;20447;-62
2022/12/20 12:23:55;;;;;;;35.85;27.83;;;9.70;1.00;;;;;;5011435;28;20124;-61
2022/12/20 12:26:29;;;;;;;40.50;28.80;;;9.80;1.00;;;;;;5035891;28;20029;-62
2022/12/20 12:29:02;;;;;;;36.63;28.88;;;9.60;1.00;;;;;;5031678;28;20036;-61
2022/12/20 12:31:31;;;;;;;41.60;31.75;;;9.60;1.00;;;;;;5034334;28;20037;-61
2022/12/20 12:34:09;;;;;;;38.22;29.02;;;9.80;1.00;;;;;;5029153;28;20087;-63
2022/12/20 12:40:20;;;;;;;35.90;29.52;;;10.00;1.00;;;;;;5022912;28;20042;-63
2022/12/20 12:43:22;;;;;;;43.90;31.02;;;9.80;1.00;;;;;;5029294;28;20034;-63
2022/12/20 12:45:51;;;;;;;40.55;29.77;;;9.80;1.00;;;;;;5025379;28;20038;-63
2022/12/20 12:48:40;;;;;;;36.17;28.05;;;9.90;1.00;;;;;;5031856;28;20108;-63
2022/12/20 12:51:10;;;;;;;37.63;27.33;;;10.00;1.00;;;;;;5025437;28;20501;-63
2022/12/20 12:53:50;;;;;;;38.20;27.90;;;10.00;1.00;;;;;;5028937;28;20177;-63
2022/12/20 12:56:38;;;;;;;35.92;26.95;;;9.80;1.00;;;;;;5029276;28;20391;-63
2022/12/20 12:59:17;;;;;;;34.67;28.02;;;9.80;1.00;;;;;;5034247;28;20024;-63
2022/12/20 13:02:16;;;;;;;36.33;29.40;;;9.90;1.00;;;;;;5032386;28;20116;-63
2022/12/20 13:04:54;;;;;;;38.72;28.60;;;9.60;1.00;;;;;;5034028;28;20021;-63
2022/12/20 13:07:44;;;;;;;37.83;27.88;;;9.50;1.00;;;;;;5023403;28;20030;-63
2022/12/20 13:10:30;;;;;;;35.03;28.05;;;9.70;1.00;;;;;;5020467;28;20056;-63
2022/12/20 13:13:00;;;;;;;35.35;27.98;;;9.80;1.00;;;;;;5031941;28;20434;-63
2022/12/20 13:15:26;;;;;;;34.75;28.23;;;9.70;1.00;;;;;;5033557;28;20371;-63
2022/12/20 13:17:54;;;;;;;37.53;27.73;;;9.50;1.00;;;;;;5033367;28;20109;-63
2022/12/20 13:20:26;;;;;;;35.50;29.02;;;9.70;1.00;;;;;;5032437;28;20025;-63
2022/12/20 13:23:13;;;;;;;38.92;28.73;;;9.60;1.00;;;;;;5033690;28;20498;-63
2022/12/20 13:25:47;;;;;;;34.60;28.48;;;9.60;1.00;;;;;;5019801;28;20487;-64
2022/12/20 13:28:15;;;;;;;34.78;27.67;;;9.60;1.00;;;;;;5018660;28;20013;-63
2022/12/20 13:30:45;;;;;;;34.63;28.42;;;9.50;1.00;;;;;;5024938;28;20042;-64
2022/12/20 13:33:36;;;;;;;35.22;28.85;;;9.60;1.00;;;;;;5032722;28;20466;-64
2022/12/20 13:36:24;;;;;;;36.15;28.15;;;9.60;1.00;;;;;;5030723;28;20379;-64
2022/12/20 13:38:53;;;;;;;36.78;29.50;;;9.60;1.00;;;;;;5029344;28;20034;-63
2022/12/20 13:41:22;;;;;;;43.10;32.63;;;9.70;1.00;;;;;;5019743;28;20083;-64
2022/12/20 13:43:49;;;;;;;36.60;30.25;;;9.80;1.00;;;;;;5033362;28;20037;-63
2022/12/20 13:46:39;;;;;;;43.53;32.15;;;9.80;1.00;;;;;;5033071;28;20479;-64
2022/12/20 13:49:10;;;;;;;44.05;33.78;;;9.70;1.00;;;;;;5032010;28;20075;-63
2022/12/20 13:51:36;;;;;;;42.38;32.88;;;9.50;1.00;;;;;;5031716;28;20457;-64